createdAt,value
2018-11-07T00:00:15.731Z,12.40
2018-11-07T00:01:15.788Z,10.90
2018-11-07T00:02:15.843Z,10.10
2018-11-07T00:03:15.900Z,9.20
2018-11-07T00:04:15.956Z,11.00
2018-11-07T00:05:16.014Z,10.70
2018-11-07T00:06:16.070Z,9.70
2018-11-07T00:07:16.128Z,10.40
2018-11-07T00:08:16.327Z,10.60
2018-11-07T00:09:16.239Z,11.70
2018-11-07T00:10:16.297Z,9.80
2018-11-07T00:11:16.354Z,12.30
2018-11-07T00:12:16.414Z,13.50
2018-11-07T00:13:16.467Z,12.60
2018-11-07T00:14:16.523Z,11.10
2018-11-07T00:15:16.581Z,9.50
2018-11-07T00:16:16.637Z,10.30
2018-11-07T00:17:16.692Z,12.30
2018-11-07T00:18:16.750Z,14.00
2018-11-07T00:19:16.806Z,13.30
2018-11-07T00:20:16.882Z,11.50
2018-11-07T00:21:16.921Z,10.60
2018-11-07T00:22:16.979Z,12.10
2018-11-07T00:23:17.034Z,10.40
2018-11-07T00:24:17.091Z,11.80
2018-11-07T00:25:17.144Z,9.60
2018-11-07T00:26:17.224Z,11.60
2018-11-07T00:27:17.262Z,12.40
2018-11-07T00:28:17.323Z,10.90
2018-11-07T00:29:17.375Z,10.60
2018-11-07T00:30:17.592Z,12.00
2018-11-07T00:31:17.484Z,13.70
2018-11-07T00:32:17.545Z,9.30
2018-11-07T00:33:17.597Z,13.60
2018-11-07T00:34:17.655Z,10.30
2018-11-07T00:35:17.832Z,9.50
2018-11-07T00:36:17.768Z,13.60
2018-11-07T00:37:17.823Z,10.30
2018-11-07T00:38:17.881Z,11.70
2018-11-07T00:39:17.940Z,9.20
2018-11-07T00:40:17.993Z,10.20
2018-11-07T00:41:18.051Z,10.40
2018-11-07T00:42:18.111Z,11.20
2018-11-07T00:43:18.163Z,13.30
2018-11-07T00:44:18.219Z,10.20
2018-11-07T00:45:18.275Z,9.90
2018-11-07T00:46:18.332Z,10.70
2018-11-07T00:47:18.389Z,10.30
2018-11-07T00:48:18.446Z,14.30
2018-11-07T00:49:18.502Z,9.80
2018-11-07T00:50:18.559Z,9.00
2018-11-07T00:51:18.615Z,9.80
2018-11-07T00:52:18.672Z,14.00
2018-11-07T00:53:18.728Z,14.40
2018-11-07T00:54:18.785Z,16.00
2018-11-07T00:55:18.842Z,10.80
2018-11-07T00:56:18.899Z,11.60
2018-11-07T00:57:18.953Z,10.30
2018-11-07T00:58:19.013Z,10.10
2018-11-07T00:59:19.068Z,10.00
2018-11-07T01:00:19.124Z,10.00
2018-11-07T01:01:19.183Z,10.10
2018-11-07T01:02:19.238Z,9.40
2018-11-07T01:03:19.294Z,11.20
2018-11-07T01:04:19.351Z,12.40
2018-11-07T01:05:19.408Z,11.30
2018-11-07T01:06:19.464Z,8.70
2018-11-07T01:07:19.520Z,9.80
2018-11-07T01:08:19.577Z,11.40
2018-11-07T01:09:19.663Z,8.20
2018-11-07T01:10:19.690Z,7.50
2018-11-07T01:11:19.749Z,10.80
2018-11-07T01:12:19.847Z,10.50
2018-11-07T01:13:19.859Z,11.80
2018-11-07T01:14:19.915Z,9.20
2018-11-07T01:15:19.974Z,8.90
2018-11-07T01:16:20.029Z,10.10
2018-11-07T01:17:20.085Z,9.30
2018-11-07T01:18:20.142Z,10.10
2018-11-07T01:19:20.197Z,9.30
2018-11-07T01:20:20.795Z,12.30
2018-11-07T01:21:20.316Z,10.30
2018-11-07T01:22:20.432Z,27.20
2018-11-07T01:23:20.424Z,22.00
2018-11-07T01:24:20.481Z,19.80
2018-11-07T01:25:20.537Z,22.90
2018-11-07T01:26:20.593Z,49.60
2018-11-07T01:27:20.649Z,20.80
2018-11-07T01:28:20.753Z,21.30
2018-11-07T01:29:20.762Z,17.50
2018-11-07T01:30:20.819Z,19.40
2018-11-07T01:31:20.876Z,24.30
2018-11-07T01:32:20.935Z,49.80
2018-11-07T01:33:20.989Z,25.90
2018-11-07T01:34:21.046Z,19.80
2018-11-07T01:35:21.101Z,37.50
2018-11-07T01:36:21.158Z,12.00
2018-11-07T01:37:21.213Z,21.40
2018-11-07T01:38:21.471Z,16.50
2018-11-07T01:39:21.327Z,23.30
2018-11-07T01:40:21.383Z,18.40
2018-11-07T01:41:21.439Z,37.70
2018-11-07T01:42:21.496Z,13.50
2018-11-07T01:43:21.553Z,17.90
2018-11-07T01:44:21.609Z,11.60
2018-11-07T01:45:21.665Z,9.80
2018-11-07T01:46:21.722Z,36.50
2018-11-07T01:47:21.779Z,15.50
2018-11-07T01:48:21.836Z,10.50
2018-11-07T01:49:21.891Z,17.70
2018-11-07T01:50:21.948Z,25.60
2018-11-07T01:51:22.005Z,67.80
2018-11-07T01:52:22.070Z,47.40
2018-11-07T01:53:22.116Z,37.50
2018-11-07T01:54:22.174Z,20.50
2018-11-07T01:55:22.231Z,13.80
2018-11-07T01:56:22.287Z,13.30
2018-11-07T01:57:22.343Z,14.50
2018-11-07T01:58:22.400Z,9.10
2018-11-07T01:59:22.457Z,14.70
2018-11-07T02:00:22.513Z,10.80
2018-11-07T02:01:22.569Z,11.70
2018-11-07T02:02:22.627Z,9.10
2018-11-07T02:03:22.682Z,13.70
2018-11-07T02:04:22.739Z,10.20
2018-11-07T02:05:22.807Z,10.60
2018-11-07T02:06:22.852Z,9.40
2018-11-07T02:07:22.910Z,8.20
2018-11-07T02:08:22.965Z,11.90
2018-11-07T02:09:23.020Z,9.30
2018-11-07T02:10:23.078Z,8.60
2018-11-07T02:11:23.134Z,9.40
2018-11-07T02:12:23.191Z,9.50
2018-11-07T02:13:23.246Z,9.00
2018-11-07T02:14:23.304Z,11.70
2018-11-07T02:15:23.360Z,13.70
2018-11-07T02:16:23.418Z,9.80
2018-11-07T02:17:23.472Z,9.50
2018-11-07T02:18:23.529Z,10.50
2018-11-07T02:19:23.586Z,8.30
2018-11-07T02:20:23.642Z,9.50
2018-11-07T02:21:23.697Z,9.10
2018-11-07T02:22:24.260Z,7.80
2018-11-07T02:23:24.299Z,9.10
2018-11-07T02:24:24.533Z,9.60
2018-11-07T02:25:24.494Z,7.10
2018-11-07T02:26:24.711Z,11.10
2018-11-07T02:27:24.037Z,8.50
2018-11-07T02:28:24.094Z,8.20
2018-11-07T02:29:24.798Z,9.10
2018-11-07T02:30:24.764Z,8.30
2018-11-07T02:31:24.263Z,11.80
2018-11-07T02:32:24.322Z,8.60
2018-11-07T02:33:24.376Z,10.50
2018-11-07T02:34:24.433Z,10.40
2018-11-07T02:35:24.488Z,8.90
2018-11-07T02:36:24.546Z,8.10
2018-11-07T02:37:24.601Z,7.60
2018-11-07T02:38:24.658Z,7.30
2018-11-07T02:39:24.715Z,9.10
2018-11-07T02:40:24.771Z,10.90
2018-11-07T02:41:24.828Z,10.10
2018-11-07T02:42:24.920Z,5.60
2018-11-07T02:43:24.941Z,8.80
2018-11-07T02:44:25.002Z,7.60
2018-11-07T02:45:25.059Z,8.60
2018-11-07T02:46:25.110Z,7.60
2018-11-07T02:47:25.166Z,8.80
2018-11-07T02:48:25.224Z,10.70
2018-11-07T02:49:25.279Z,7.50
2018-11-07T02:50:25.335Z,9.60
2018-11-07T02:51:25.392Z,8.50
2018-11-07T02:52:25.455Z,7.80
2018-11-07T02:53:25.537Z,12.40
2018-11-07T02:54:25.563Z,7.00
2018-11-07T02:55:25.632Z,7.50
2018-11-07T02:56:25.674Z,10.70
2018-11-07T02:57:25.730Z,7.60
2018-11-07T02:58:25.790Z,7.90
2018-11-07T02:59:25.843Z,8.40
2018-11-07T03:00:25.901Z,8.00
2018-11-07T03:01:26.160Z,7.30
2018-11-07T03:02:26.013Z,11.20
2018-11-07T03:03:26.070Z,9.10
2018-11-07T03:04:26.126Z,8.40
2018-11-07T03:05:26.183Z,7.10
2018-11-07T03:06:26.237Z,8.10
2018-11-07T03:07:26.294Z,8.20
2018-11-07T03:08:26.353Z,7.20
2018-11-07T03:09:26.407Z,7.10
2018-11-07T03:10:26.518Z,7.30
2018-11-07T03:11:26.520Z,12.00
2018-11-07T03:12:26.577Z,12.10
2018-11-07T03:13:26.633Z,8.70
2018-11-07T03:14:26.689Z,9.40
2018-11-07T03:15:26.746Z,7.70
2018-11-07T03:16:26.803Z,8.60
2018-11-07T03:17:26.858Z,8.20
2018-11-07T03:18:26.914Z,7.90
2018-11-07T03:19:26.972Z,7.30
2018-11-07T03:20:27.029Z,7.10
2018-11-07T03:21:27.084Z,8.40
2018-11-07T03:22:27.139Z,8.40
2018-11-07T03:23:27.199Z,7.20
2018-11-07T03:24:27.254Z,7.50
2018-11-07T03:25:27.309Z,6.60
2018-11-07T03:26:27.364Z,7.90
2018-11-07T03:27:27.457Z,8.30
2018-11-07T03:28:27.478Z,9.30
2018-11-07T03:29:27.534Z,9.80
2018-11-07T03:30:27.594Z,8.50
2018-11-07T03:31:27.652Z,9.40
2018-11-07T03:32:27.705Z,7.60
2018-11-07T03:33:27.761Z,7.30
2018-11-07T03:34:27.816Z,7.70
2018-11-07T03:35:27.873Z,7.70
2018-11-07T03:36:27.930Z,8.30
2018-11-07T03:37:27.984Z,7.40
2018-11-07T03:38:28.042Z,7.90
2018-11-07T03:39:28.104Z,8.30
2018-11-07T03:40:28.154Z,8.60
2018-11-07T03:41:28.210Z,7.90
2018-11-07T03:42:28.266Z,7.50
2018-11-07T03:43:28.323Z,7.30
2018-11-07T03:44:28.379Z,8.60
2018-11-07T03:45:28.436Z,8.90
2018-11-07T03:46:28.491Z,7.90
2018-11-07T03:47:28.551Z,7.30
2018-11-07T03:48:28.604Z,6.90
2018-11-07T03:49:28.661Z,6.90
2018-11-07T03:50:28.717Z,9.40
2018-11-07T03:51:28.773Z,9.20
2018-11-07T03:52:28.830Z,7.50
2018-11-07T03:53:28.908Z,8.70
2018-11-07T03:54:28.941Z,7.40
2018-11-07T03:55:28.998Z,6.70
2018-11-07T03:56:29.054Z,8.30
2018-11-07T03:57:29.109Z,7.00
2018-11-07T03:58:29.168Z,9.70
2018-11-07T03:59:29.232Z,8.90
2018-11-07T04:00:29.283Z,9.10
2018-11-07T04:01:29.334Z,8.30
2018-11-07T04:02:29.393Z,8.30
2018-11-07T04:03:29.446Z,8.30
2018-11-07T04:04:29.503Z,8.60
2018-11-07T04:05:29.561Z,12.10
2018-11-07T04:06:29.613Z,8.60
2018-11-07T04:07:29.670Z,7.20
2018-11-07T04:08:29.727Z,12.20
2018-11-07T04:09:29.781Z,9.20
2018-11-07T04:10:29.837Z,7.70
2018-11-07T04:11:29.893Z,6.60
2018-11-07T04:12:29.950Z,7.80
2018-11-07T04:13:30.006Z,6.80
2018-11-07T04:14:30.062Z,8.80
2018-11-07T04:15:30.117Z,8.70
2018-11-07T04:16:30.327Z,6.20
2018-11-07T04:17:30.229Z,8.10
2018-11-07T04:18:30.284Z,10.40
2018-11-07T04:19:30.339Z,8.50
2018-11-07T04:20:30.396Z,6.90
2018-11-07T04:21:30.453Z,7.40
2018-11-07T04:22:30.507Z,7.90
2018-11-07T04:23:30.564Z,6.30
2018-11-07T04:24:30.620Z,8.00
2018-11-07T04:25:30.675Z,10.40
2018-11-07T04:26:30.731Z,7.30
2018-11-07T04:27:30.788Z,8.50
2018-11-07T04:28:30.843Z,7.40
2018-11-07T04:29:30.898Z,7.70
2018-11-07T04:30:30.955Z,8.80
2018-11-07T04:31:31.011Z,7.70
2018-11-07T04:32:31.067Z,7.20
2018-11-07T04:33:31.122Z,8.40
2018-11-07T04:34:31.178Z,8.00
2018-11-07T04:35:31.234Z,6.80
2018-11-07T04:36:31.293Z,9.50
2018-11-07T04:37:31.345Z,7.50
2018-11-07T04:38:31.401Z,8.20
2018-11-07T04:39:31.461Z,6.50
2018-11-07T04:40:31.522Z,6.30
2018-11-07T04:41:31.877Z,7.10
2018-11-07T04:42:31.625Z,7.10
2018-11-07T04:43:31.680Z,8.50
2018-11-07T04:44:31.738Z,8.20
2018-11-07T04:45:31.791Z,6.10
2018-11-07T04:46:31.849Z,9.10
2018-11-07T04:47:31.904Z,6.20
2018-11-07T04:48:31.959Z,8.20
2018-11-07T04:49:32.014Z,7.80
2018-11-07T04:50:32.071Z,6.80
2018-11-07T04:51:32.127Z,8.00
2018-11-07T04:52:32.185Z,8.60
2018-11-07T04:53:32.243Z,8.20
2018-11-07T04:54:32.294Z,7.90
2018-11-07T04:55:32.350Z,6.40
2018-11-07T04:56:32.406Z,7.30
2018-11-07T04:57:32.463Z,5.40
2018-11-07T04:58:32.517Z,6.70
2018-11-07T04:59:32.576Z,6.50
2018-11-07T05:00:32.656Z,7.30
2018-11-07T05:01:32.690Z,7.50
2018-11-07T05:02:32.743Z,6.50
2018-11-07T05:03:32.798Z,7.00
2018-11-07T05:04:32.852Z,10.30
2018-11-07T05:05:32.909Z,4.90
2018-11-07T05:06:32.964Z,6.60
2018-11-07T05:07:33.020Z,5.70
2018-11-07T05:08:33.107Z,8.80
2018-11-07T05:09:33.129Z,7.50
2018-11-07T05:10:33.191Z,6.60
2018-11-07T05:11:33.244Z,8.20
2018-11-07T05:12:33.298Z,7.10
2018-11-07T05:13:33.354Z,8.60
2018-11-07T05:14:33.413Z,5.10
2018-11-07T05:15:33.464Z,6.50
2018-11-07T05:16:33.520Z,6.80
2018-11-07T05:17:33.577Z,6.20
2018-11-07T05:18:33.632Z,6.50
2018-11-07T05:19:33.704Z,7.10
2018-11-07T05:20:33.746Z,8.40
2018-11-07T05:21:33.799Z,5.20
2018-11-07T05:22:33.862Z,6.30
2018-11-07T05:23:33.913Z,7.30
2018-11-07T05:24:33.968Z,5.50
2018-11-07T05:25:34.022Z,6.50
2018-11-07T05:26:34.081Z,6.00
2018-11-07T05:27:34.133Z,7.40
2018-11-07T05:28:34.195Z,6.50
2018-11-07T05:29:34.246Z,5.80
2018-11-07T05:30:34.300Z,7.70
2018-11-07T05:31:34.356Z,9.20
2018-11-07T05:32:34.412Z,7.00
2018-11-07T05:33:34.467Z,5.10
2018-11-07T05:34:34.525Z,5.40
2018-11-07T05:35:34.579Z,6.20
2018-11-07T05:36:34.634Z,5.90
2018-11-07T05:37:34.839Z,7.60
2018-11-07T05:38:34.745Z,6.70
2018-11-07T05:39:34.800Z,6.80
2018-11-07T05:40:34.870Z,8.60
2018-11-07T05:41:34.912Z,5.50
2018-11-07T05:42:34.968Z,4.90
2018-11-07T05:43:35.023Z,9.20
2018-11-07T05:44:35.080Z,5.40
2018-11-07T05:45:35.135Z,6.20
2018-11-07T05:46:35.190Z,8.40
2018-11-07T05:47:35.246Z,7.50
2018-11-07T05:48:35.302Z,8.60
2018-11-07T05:49:35.358Z,7.70
2018-11-07T05:50:35.442Z,7.50
2018-11-07T05:51:35.470Z,7.90
2018-11-07T05:52:35.529Z,7.50
2018-11-07T05:53:35.889Z,32.90
2018-11-07T05:54:35.650Z,7.50
2018-11-07T05:55:35.692Z,8.70
2018-11-07T05:56:35.749Z,12.90
2018-11-07T05:57:35.804Z,38.80
2018-11-07T05:58:35.859Z,16.30
2018-11-07T05:59:35.915Z,59.80
2018-11-07T06:00:35.971Z,6.60
2018-11-07T06:01:36.026Z,8.20
2018-11-07T06:02:36.082Z,26.60
2018-11-07T06:03:36.498Z,31.80
2018-11-07T06:04:36.194Z,18.20
2018-11-07T06:05:36.250Z,27.50
2018-11-07T06:06:36.311Z,8.50
2018-11-07T06:07:36.361Z,20.20
2018-11-07T06:08:36.417Z,8.60
2018-11-07T06:09:36.474Z,6.40
2018-11-07T06:10:36.528Z,6.20
2018-11-07T06:11:36.585Z,6.20
2018-11-07T06:12:36.642Z,6.80
2018-11-07T06:13:36.701Z,5.60
2018-11-07T06:14:36.753Z,7.10
2018-11-07T06:15:36.808Z,5.90
2018-11-07T06:16:36.870Z,5.80
2018-11-07T06:17:36.919Z,6.10
2018-11-07T06:18:36.977Z,6.10
2018-11-07T06:19:37.031Z,8.70
2018-11-07T06:20:37.088Z,7.00
2018-11-07T06:21:37.144Z,5.10
2018-11-07T06:22:37.199Z,7.40
2018-11-07T06:23:37.275Z,6.40
2018-11-07T06:24:37.334Z,6.50
2018-11-07T06:25:37.367Z,6.40
2018-11-07T06:26:37.422Z,7.30
2018-11-07T06:27:37.478Z,11.10
2018-11-07T06:28:37.535Z,6.40
2018-11-07T06:29:37.590Z,7.20
2018-11-07T06:30:37.649Z,9.90
2018-11-07T06:31:37.705Z,9.10
2018-11-07T06:32:37.758Z,5.50
2018-11-07T06:33:37.814Z,6.80
2018-11-07T06:34:37.872Z,7.50
2018-11-07T06:35:37.925Z,5.40
2018-11-07T06:36:37.980Z,5.00
2018-11-07T06:37:38.036Z,7.90
2018-11-07T06:38:38.093Z,5.50
2018-11-07T06:39:38.148Z,6.00
2018-11-07T06:40:38.204Z,5.60
2018-11-07T06:41:38.259Z,9.40
2018-11-07T06:42:38.317Z,6.60
2018-11-07T06:43:38.370Z,6.00
2018-11-07T06:44:38.490Z,6.30
2018-11-07T06:45:38.483Z,5.60
2018-11-07T06:46:38.537Z,6.00
2018-11-07T06:47:38.594Z,6.20
2018-11-07T06:48:38.650Z,6.90
2018-11-07T06:49:38.704Z,8.90
2018-11-07T06:50:38.762Z,5.60
2018-11-07T06:51:39.249Z,4.90
2018-11-07T06:52:38.872Z,5.80
2018-11-07T06:53:38.927Z,17.30
2018-11-07T06:54:38.983Z,6.30
2018-11-07T06:55:39.104Z,4.90
2018-11-07T06:56:39.095Z,6.90
2018-11-07T06:57:39.149Z,4.40
2018-11-07T06:58:39.207Z,5.40
2018-11-07T06:59:39.261Z,4.70
2018-11-07T07:00:39.316Z,5.70
2018-11-07T07:01:39.371Z,7.70
2018-11-07T07:02:39.427Z,5.10
2018-11-07T07:03:39.484Z,6.10
2018-11-07T07:04:39.539Z,5.40
2018-11-07T07:05:39.594Z,5.00
2018-11-07T07:06:39.651Z,4.90
2018-11-07T07:07:39.707Z,7.10
2018-11-07T07:08:39.762Z,5.70
2018-11-07T07:09:39.816Z,4.10
2018-11-07T07:10:39.872Z,6.10
2018-11-07T07:11:39.929Z,7.30
2018-11-07T07:12:39.984Z,5.90
2018-11-07T07:13:40.040Z,5.70
2018-11-07T07:14:40.095Z,4.40
2018-11-07T07:15:40.151Z,5.10
2018-11-07T07:16:40.207Z,6.70
2018-11-07T07:17:40.343Z,10.00
2018-11-07T07:18:40.866Z,9.20
2018-11-07T07:19:40.377Z,6.40
2018-11-07T07:20:40.429Z,4.80
2018-11-07T07:21:40.486Z,6.60
2018-11-07T07:22:40.542Z,12.60
2018-11-07T07:23:40.612Z,23.30
2018-11-07T07:24:41.012Z,7.30
2018-11-07T07:25:40.726Z,35.70
2018-11-07T07:26:40.764Z,39.50
2018-11-07T07:27:40.825Z,18.80
2018-11-07T07:28:40.876Z,9.70
2018-11-07T07:29:40.935Z,7.30
2018-11-07T07:30:40.990Z,8.10
2018-11-07T07:31:41.045Z,8.90
2018-11-07T07:32:41.099Z,9.10
2018-11-07T07:33:41.162Z,9.10
2018-11-07T07:34:41.363Z,7.20
2018-11-07T07:35:41.267Z,6.90
2018-11-07T07:36:41.323Z,7.10
2018-11-07T07:37:41.380Z,7.50
2018-11-07T07:38:41.450Z,7.50
2018-11-07T07:39:41.492Z,7.70
2018-11-07T07:40:41.548Z,7.30
2018-11-07T07:41:41.606Z,7.30
2018-11-07T07:42:41.658Z,10.00
2018-11-07T07:43:41.716Z,8.00
2018-11-07T07:44:41.772Z,10.00
2018-11-07T07:45:41.906Z,6.60
2018-11-07T07:46:41.884Z,7.50
2018-11-07T07:47:41.941Z,9.10
2018-11-07T07:48:41.997Z,9.80
2018-11-07T07:49:42.073Z,7.60
2018-11-07T07:50:42.110Z,8.40
2018-11-07T07:51:42.176Z,9.60
2018-11-07T07:52:42.225Z,9.70
2018-11-07T07:53:42.278Z,23.20
2018-11-07T07:54:42.335Z,7.30
2018-11-07T07:55:42.393Z,7.90
2018-11-07T07:56:42.448Z,6.10
2018-11-07T07:57:42.504Z,6.60
2018-11-07T07:58:42.560Z,7.00
2018-11-07T07:59:42.617Z,7.60
2018-11-07T08:00:42.675Z,7.30
2018-11-07T08:01:42.740Z,6.70
2018-11-07T08:02:42.788Z,9.80
2018-11-07T08:03:42.845Z,29.00
2018-11-07T08:04:42.907Z,11.80
2018-11-07T08:05:42.957Z,21.40
2018-11-07T08:06:43.067Z,31.60
2018-11-07T08:07:43.072Z,7.90
2018-11-07T08:08:43.127Z,7.50
2018-11-07T08:09:43.182Z,9.70
2018-11-07T08:10:43.243Z,7.40
2018-11-07T08:11:43.298Z,6.30
2018-11-07T08:12:43.354Z,23.30
2018-11-07T08:13:43.414Z,12.90
2018-11-07T08:14:44.070Z,6.20
2018-11-07T08:15:43.525Z,17.80
2018-11-07T08:16:43.582Z,8.00
2018-11-07T08:17:43.638Z,7.10
2018-11-07T08:18:43.696Z,5.80
2018-11-07T08:19:43.753Z,30.90
2018-11-07T08:20:43.810Z,12.80
2018-11-07T08:21:44.710Z,17.90
2018-11-07T08:22:44.778Z,16.90
2018-11-07T08:23:44.540Z,12.30
2018-11-07T08:24:44.967Z,16.80
2018-11-07T08:25:44.773Z,10.90
2018-11-07T08:26:44.155Z,27.50
2018-11-07T08:27:44.209Z,24.10
2018-11-07T08:28:44.274Z,20.00
2018-11-07T08:29:45.000Z,23.00
2018-11-07T08:30:45.210Z,23.60
2018-11-07T08:31:44.962Z,43.10
2018-11-07T08:32:45.213Z,114.40
2018-11-07T08:33:45.227Z,76.00
2018-11-07T08:34:45.308Z,73.50
2018-11-07T08:35:45.373Z,92.00
2018-11-07T08:36:45.114Z,111.40
2018-11-07T08:37:45.304Z,59.50
2018-11-07T08:38:44.836Z,62.80
2018-11-07T08:39:44.895Z,33.60
2018-11-07T08:40:44.955Z,64.70
2018-11-07T08:41:45.010Z,36.20
2018-11-07T08:42:45.066Z,46.40
2018-11-07T08:43:45.462Z,22.80
2018-11-07T08:44:45.182Z,7.90
2018-11-07T08:45:45.237Z,22.20
2018-11-07T08:46:45.295Z,11.70
2018-11-07T08:47:45.852Z,5.50
2018-11-07T08:48:45.961Z,11.10
2018-11-07T08:49:45.466Z,18.00
2018-11-07T08:50:45.523Z,34.40
2018-11-07T08:51:45.579Z,8.80
2018-11-07T08:52:45.639Z,8.20
2018-11-07T08:53:45.695Z,8.10
2018-11-07T08:54:45.756Z,6.00
2018-11-07T08:55:46.059Z,6.70
2018-11-07T08:56:45.865Z,13.50
2018-11-07T08:57:45.922Z,8.40
2018-11-07T08:58:45.979Z,15.20
2018-11-07T08:59:46.037Z,12.30
2018-11-07T09:00:46.094Z,7.40
2018-11-07T09:01:46.153Z,7.50
2018-11-07T09:02:46.213Z,7.10
2018-11-07T09:03:46.269Z,18.00
2018-11-07T09:04:46.324Z,9.20
2018-11-07T09:05:46.380Z,7.70
2018-11-07T09:06:46.438Z,7.00
2018-11-07T09:07:46.495Z,9.00
2018-11-07T09:08:46.579Z,7.90
2018-11-07T09:09:46.610Z,8.70
2018-11-07T09:10:46.668Z,5.60
2018-11-07T09:11:46.726Z,6.10
2018-11-07T09:12:46.789Z,6.70
2018-11-07T09:13:46.841Z,8.60
2018-11-07T09:14:46.898Z,6.90
2018-11-07T09:15:46.956Z,8.10
2018-11-07T09:16:47.016Z,7.30
2018-11-07T09:17:47.076Z,7.50
2018-11-07T09:18:47.133Z,8.70
2018-11-07T09:19:47.204Z,6.80
2018-11-07T09:20:47.249Z,7.00
2018-11-07T09:21:47.304Z,9.50
2018-11-07T09:22:47.362Z,7.10
2018-11-07T09:23:47.421Z,8.20
2018-11-07T09:24:47.479Z,7.30
2018-11-07T09:25:48.338Z,10.00
2018-11-07T09:26:47.595Z,8.30
2018-11-07T09:27:47.652Z,9.50
2018-11-07T09:28:47.713Z,6.90
2018-11-07T09:29:47.770Z,6.10
2018-11-07T09:30:47.827Z,6.80
2018-11-07T09:31:47.887Z,8.10
2018-11-07T09:32:47.953Z,6.30
2018-11-07T09:33:48.002Z,6.40
2018-11-07T09:34:48.064Z,6.70
2018-11-07T09:35:48.119Z,6.00
2018-11-07T09:36:48.178Z,8.40
2018-11-07T09:37:48.234Z,8.10
2018-11-07T09:38:48.294Z,7.20
2018-11-07T09:39:48.401Z,6.20
2018-11-07T09:40:48.410Z,6.00
2018-11-07T09:41:48.467Z,5.60
2018-11-07T09:42:48.525Z,5.40
2018-11-07T09:43:48.583Z,6.50
2018-11-07T09:44:48.642Z,6.20
2018-11-07T09:45:48.703Z,5.40
2018-11-07T09:46:48.759Z,5.30
2018-11-07T09:47:48.817Z,8.10
2018-11-07T09:48:48.887Z,7.10
2018-11-07T09:49:48.932Z,8.00
2018-11-07T09:50:48.990Z,5.70
2018-11-07T09:51:49.048Z,5.80
2018-11-07T09:52:49.109Z,8.50
2018-11-07T09:53:49.204Z,6.50
2018-11-07T09:54:49.225Z,5.30
2018-11-07T09:55:49.288Z,6.30
2018-11-07T09:56:49.338Z,5.80
2018-11-07T09:57:49.393Z,6.90
2018-11-07T09:58:49.453Z,4.90
2018-11-07T09:59:49.511Z,5.60
2018-11-07T10:00:49.585Z,5.80
2018-11-07T10:01:49.626Z,5.60
2018-11-07T10:02:49.684Z,6.40
2018-11-07T10:03:49.742Z,6.30
2018-11-07T10:04:49.801Z,5.60
2018-11-07T10:05:49.858Z,5.50
2018-11-07T10:06:49.920Z,6.30
2018-11-07T10:07:49.976Z,9.50
2018-11-07T10:08:50.051Z,8.10
2018-11-07T10:09:50.090Z,5.30
2018-11-07T10:10:50.147Z,5.60
2018-11-07T10:11:50.885Z,5.20
2018-11-07T10:12:50.891Z,5.30
2018-11-07T10:13:50.321Z,6.30
2018-11-07T10:14:50.379Z,6.10
2018-11-07T10:15:50.436Z,7.10
2018-11-07T10:16:50.495Z,5.60
2018-11-07T10:17:51.376Z,5.20
2018-11-07T10:18:51.285Z,5.10
2018-11-07T10:19:51.516Z,4.50
2018-11-07T10:20:50.928Z,7.30
2018-11-07T10:21:51.173Z,4.50
2018-11-07T10:22:51.595Z,4.90
2018-11-07T10:23:51.564Z,5.40
2018-11-07T10:24:51.499Z,4.40
2018-11-07T10:25:51.700Z,4.20
2018-11-07T10:26:51.857Z,4.60
2018-11-07T10:27:52.239Z,3.60
2018-11-07T10:28:52.020Z,7.30
2018-11-07T10:29:52.356Z,5.10
2018-11-07T10:30:51.934Z,7.40
2018-11-07T10:31:52.055Z,4.60
2018-11-07T10:32:52.130Z,4.40
2018-11-07T10:33:52.461Z,7.40
2018-11-07T10:34:52.204Z,6.90
2018-11-07T10:35:52.242Z,5.60
2018-11-07T10:36:52.291Z,5.90
2018-11-07T10:37:52.539Z,4.50
2018-11-07T10:38:52.380Z,7.80
2018-11-07T10:39:52.518Z,4.40
2018-11-07T10:40:52.480Z,5.60
2018-11-07T10:41:52.947Z,5.70
2018-11-07T10:42:52.672Z,5.00
2018-11-07T10:43:52.152Z,6.00
2018-11-07T10:44:52.125Z,4.90
2018-11-07T10:45:52.237Z,5.00
2018-11-07T10:46:52.242Z,7.40
2018-11-07T10:47:52.994Z,3.80
2018-11-07T10:48:52.364Z,4.20
2018-11-07T10:49:52.418Z,5.70
2018-11-07T10:50:52.477Z,5.30
2018-11-07T10:51:52.543Z,6.10
2018-11-07T10:52:52.597Z,4.10
2018-11-07T10:53:52.653Z,3.90
2018-11-07T10:54:52.714Z,4.30
2018-11-07T10:55:52.772Z,3.80
2018-11-07T10:56:52.873Z,4.10
2018-11-07T10:57:52.893Z,3.70
2018-11-07T10:58:53.002Z,3.40
2018-11-07T10:59:53.008Z,3.70
2018-11-07T11:00:53.387Z,4.00
2018-11-07T11:01:53.126Z,3.40
2018-11-07T11:02:53.185Z,4.70
2018-11-07T11:03:53.245Z,5.20
2018-11-07T11:04:53.308Z,3.70
2018-11-07T11:05:53.375Z,3.40
2018-11-07T11:06:53.469Z,4.30
2018-11-07T11:07:53.577Z,4.20
2018-11-07T11:08:53.543Z,5.40
2018-11-07T11:09:53.602Z,2.90
2018-11-07T11:10:53.661Z,3.10
2018-11-07T11:11:53.722Z,2.90
2018-11-07T11:12:53.786Z,2.90
2018-11-07T11:13:53.841Z,6.00
2018-11-07T11:14:53.901Z,2.90
2018-11-07T11:15:53.961Z,3.40
2018-11-07T11:16:54.102Z,3.10
2018-11-07T11:17:54.083Z,4.30
2018-11-07T11:18:54.143Z,4.10
2018-11-07T11:19:54.205Z,3.00
2018-11-07T11:20:54.288Z,4.30
2018-11-07T11:21:54.325Z,4.10
2018-11-07T11:22:54.386Z,5.50
2018-11-07T11:23:54.454Z,5.40
2018-11-07T11:24:54.510Z,3.50
2018-11-07T11:25:54.606Z,5.40
2018-11-07T11:26:54.632Z,6.10
2018-11-07T11:27:54.693Z,5.30
2018-11-07T11:28:54.756Z,6.30
2018-11-07T11:29:54.817Z,5.80
2018-11-07T11:30:54.880Z,4.20
2018-11-07T11:31:54.942Z,3.70
2018-11-07T11:32:55.006Z,3.00
2018-11-07T11:33:55.225Z,3.00
2018-11-07T11:34:55.263Z,3.10
2018-11-07T11:35:55.190Z,5.40
2018-11-07T11:36:55.252Z,2.80
2018-11-07T11:37:55.314Z,4.50
2018-11-07T11:38:55.377Z,2.80
2018-11-07T11:39:55.439Z,2.50
2018-11-07T11:40:55.509Z,5.40
2018-11-07T11:41:55.563Z,2.10
2018-11-07T11:42:55.625Z,2.30
2018-11-07T11:43:55.688Z,2.20
2018-11-07T11:44:55.752Z,1.00
2018-11-07T11:45:55.813Z,1.60
2018-11-07T11:46:55.875Z,6.00
2018-11-07T11:47:56.619Z,2.60
2018-11-07T11:48:56.857Z,0.70
2018-11-07T11:49:56.062Z,2.20
2018-11-07T11:50:56.125Z,3.50
2018-11-07T11:51:56.188Z,4.00
2018-11-07T11:52:56.253Z,2.80
2018-11-07T11:53:56.313Z,2.10
2018-11-07T11:54:56.376Z,3.80
2018-11-07T11:55:56.442Z,1.40
2018-11-07T11:56:57.158Z,1.00
2018-11-07T11:57:57.288Z,2.40
2018-11-07T11:58:57.507Z,1.40
2018-11-07T11:59:57.572Z,1.00
2018-11-07T12:00:56.755Z,3.30
2018-11-07T12:01:56.817Z,1.40
2018-11-07T12:02:56.881Z,1.40
2018-11-07T12:03:56.944Z,2.50
2018-11-07T12:04:57.009Z,3.30
2018-11-07T12:05:57.071Z,3.50
2018-11-07T12:06:57.756Z,1.30
2018-11-07T12:07:57.197Z,2.50
2018-11-07T12:08:57.434Z,3.00
2018-11-07T12:09:57.322Z,1.40
2018-11-07T12:10:57.384Z,1.90
2018-11-07T12:11:57.467Z,2.60
2018-11-07T12:12:58.124Z,2.10
2018-11-07T12:13:57.574Z,1.60
2018-11-07T12:14:57.638Z,1.90
2018-11-07T12:15:57.701Z,1.70
2018-11-07T12:16:57.767Z,1.90
2018-11-07T12:17:57.826Z,2.10
2018-11-07T12:18:57.888Z,3.30
2018-11-07T12:19:57.951Z,2.00
2018-11-07T12:20:58.057Z,1.70
2018-11-07T12:21:58.077Z,1.20
2018-11-07T12:22:58.141Z,1.10
2018-11-07T12:23:58.205Z,4.30
2018-11-07T12:24:58.267Z,2.50
2018-11-07T12:25:58.329Z,2.50
2018-11-07T12:26:58.440Z,2.90
2018-11-07T12:27:58.459Z,1.20
2018-11-07T12:28:58.520Z,1.20
2018-11-07T12:29:58.581Z,2.40
2018-11-07T12:30:58.644Z,1.30
2018-11-07T12:31:58.709Z,0.70
2018-11-07T12:32:58.770Z,1.00
2018-11-07T12:33:58.835Z,0.80
2018-11-07T12:34:58.899Z,0.90
2018-11-07T12:35:58.961Z,1.50
2018-11-07T12:36:59.029Z,1.00
2018-11-07T12:37:59.089Z,1.00
2018-11-07T12:38:59.151Z,2.50
2018-11-07T12:40:02.823Z,1.00
2018-11-07T12:40:59.934Z,1.20
2018-11-07T12:41:59.971Z,1.70
2018-11-07T12:43:00.018Z,1.00
2018-11-07T12:44:00.095Z,1.60
2018-11-07T12:45:00.064Z,1.50
2018-11-07T12:46:00.384Z,1.50
2018-11-07T12:47:00.382Z,1.10
2018-11-07T12:48:00.445Z,1.90
2018-11-07T12:49:00.444Z,2.20
2018-11-07T12:50:00.982Z,4.30
2018-11-07T12:51:00.606Z,1.10
2018-11-07T12:52:00.911Z,1.50
2018-11-07T12:53:00.974Z,1.20
2018-11-07T12:54:00.717Z,1.50
2018-11-07T12:55:00.963Z,3.50
2018-11-07T12:56:00.894Z,0.80
2018-11-07T12:57:01.048Z,3.10
2018-11-07T12:58:01.072Z,1.70
2018-11-07T12:59:01.101Z,1.20
2018-11-07T13:00:01.292Z,1.30
2018-11-07T13:01:01.264Z,1.00
2018-11-07T13:02:01.412Z,1.70
2018-11-07T13:03:01.307Z,1.70
2018-11-07T13:04:01.416Z,1.30
2018-11-07T13:05:01.657Z,1.10
2018-11-07T13:06:01.552Z,2.50
2018-11-07T13:07:01.596Z,0.90
2018-11-07T13:08:01.722Z,1.80
2018-11-07T13:09:01.799Z,3.20
2018-11-07T13:10:01.147Z,1.00
2018-11-07T13:11:01.208Z,1.50
2018-11-07T13:12:01.273Z,4.50
2018-11-07T13:13:01.337Z,3.20